Time,TemperatureF,DewpointF,PressureIn,WindDirection,WindDirectionDegrees,WindSpeedMPH,WindSpeedGustMPH,Humidity,HourlyPrecipIn,Conditions,Clouds,dailyrainin,SoftwareType,DateUTC
2013-01-15 00:00:00,19.1,13.2,30.42,North,0,0.0,0.0,78,0.00,,,0.00,WUHU216HW,2013-01-15 06:00:00,
2013-01-15 00:05:00,19.1,13.2,30.42,North,0,0.0,0.0,78,0.00,,,0.00,WUHU216HW,2013-01-15 06:05:00,
2013-01-15 00:30:00,19.1,13.6,30.42,North,0,0.0,0.0,79,0.00,,,0.00,WUHU216HW,2013-01-15 06:30:00,
2013-01-15 00:35:00,19.1,13.6,30.42,North,0,0.0,0.0,79,0.00,,,0.00,WUHU216HW,2013-01-15 06:35:00,
2013-01-15 00:59:00,18.7,13.2,30.41,North,0,0.0,0.0,79,0.00,,,0.00,WUHU216HW,2013-01-15 06:59:00,
2013-01-15 01:00:00,18.7,13.2,30.41,North,0,0.0,0.0,79,0.00,,,0.00,WUHU216HW,2013-01-15 07:00:00,
2013-01-15 01:05:00,18.7,13.2,30.41,North,0,0.0,0.0,79,0.00,,,0.00,WUHU216HW,2013-01-15 07:05:00,
2013-01-15 01:30:00,18.4,12.9,30.40,North,0,0.0,0.0,79,0.00,,,0.00,WUHU216HW,2013-01-15 07:30:00,
2013-01-15 01:35:00,18.4,12.9,30.40,North,0,0.0,0.0,79,0.00,,,0.00,WUHU216HW,2013-01-15 07:35:00,
2013-01-15 01:59:00,18.2,13.0,30.41,North,0,0.0,0.0,80,0.00,,,0.00,WUHU216HW,2013-01-15 07:59:00,
2013-01-15 02:00:00,18.2,13.0,30.41,North,0,0.0,0.0,80,0.00,,,0.00,WUHU216HW,2013-01-15 08:00:00,
2013-01-15 02:05:00,18.2,13.0,30.41,North,0,0.0,0.0,80,0.00,,,0.00,WUHU216HW,2013-01-15 08:05:00,
2013-01-15 02:30:00,18.0,12.5,30.40,North,0,0.0,0.0,79,0.00,,,0.00,WUHU216HW,2013-01-15 08:30:00,
2013-01-15 02:35:00,18.0,12.5,30.40,North,0,0.0,0.0,79,0.00,,,0.00,WUHU216HW,2013-01-15 08:35:00,
2013-01-15 02:59:00,18.0,12.5,30.40,North,0,0.0,0.0,79,0.00,,,0.00,WUHU216HW,2013-01-15 08:59:00,
2013-01-15 03:00:00,18.0,12.5,30.40,North,0,0.0,0.0,79,0.00,,,0.00,WUHU216HW,2013-01-15 09:00:00,
2013-01-15 03:05:00,18.0,12.5,30.40,North,0,0.0,0.0,79,0.00,,,0.00,WUHU216HW,2013-01-15 09:05:00,
2013-01-15 03:30:00,17.8,12.3,30.38,North,0,0.0,0.0,79,0.00,,,0.00,WUHU216HW,2013-01-15 09:30:00,
2013-01-15 03:35:00,17.8,12.3,30.38,North,0,0.0,0.0,79,0.00,,,0.00,WUHU216HW,2013-01-15 09:35:00,
2013-01-15 03:59:00,17.8,12.3,30.38,North,0,0.0,0.0,79,0.00,,,0.00,WUHU216HW,2013-01-15 09:59:00,
2013-01-15 04:00:00,17.8,12.3,30.38,North,0,0.0,0.0,79,0.00,,,0.00,WUHU216HW,2013-01-15 10:00:00,
2013-01-15 04:05:00,17.8,12.3,30.38,North,0,0.0,0.0,79,0.00,,,0.00,WUHU216HW,2013-01-15 10:05:00,
2013-01-15 04:30:00,17.6,12.4,30.36,North,0,0.0,0.0,80,0.00,,,0.00,WUHU216HW,2013-01-15 10:30:00,
2013-01-15 04:35:00,17.6,12.4,30.36,North,0,0.0,0.0,80,0.00,,,0.00,WUHU216HW,2013-01-15 10:35:00,
2013-01-15 04:59:00,17.5,12.2,30.36,North,0,0.0,0.0,80,0.00,,,0.00,WUHU216HW,2013-01-15 10:59:00,
2013-01-15 05:00:00,17.5,12.2,30.36,North,0,0.0,0.0,80,0.00,,,0.00,WUHU216HW,2013-01-15 11:00:00,
2013-01-15 05:05:00,17.5,12.2,30.36,North,0,0.0,0.0,80,0.00,,,0.00,WUHU216HW,2013-01-15 11:05:00,
2013-01-15 05:30:00,17.3,12.1,30.35,North,0,0.0,0.0,80,0.00,,,0.00,WUHU216HW,2013-01-15 11:30:00,
2013-01-15 05:35:00,17.3,12.1,30.35,North,0,0.0,0.0,80,0.00,,,0.00,WUHU216HW,2013-01-15 11:35:00,
2013-01-15 05:59:00,17.3,12.1,30.36,North,0,0.0,0.0,80,0.00,,,0.00,WUHU216HW,2013-01-15 11:59:00,
2013-01-15 06:00:00,17.3,12.1,30.36,North,0,0.0,0.0,80,0.00,,,0.00,WUHU216HW,2013-01-15 12:00:00,
2013-01-15 06:05:00,17.3,12.1,30.36,North,0,0.0,0.0,80,0.00,,,0.00,WUHU216HW,2013-01-15 12:05:00,
2013-01-15 06:30:00,17.1,12.0,30.38,North,0,0.0,0.0,80,0.00,,,0.00,WUHU216HW,2013-01-15 12:30:00,
2013-01-15 06:35:00,17.1,12.0,30.38,North,0,0.0,0.0,80,0.00,,,0.00,WUHU216HW,2013-01-15 12:35:00,
2013-01-15 06:59:00,16.9,11.8,30.39,North,0,0.0,0.0,80,0.00,,,0.00,WUHU216HW,2013-01-15 12:59:00,
2013-01-15 07:00:00,16.9,11.8,30.39,North,0,0.0,0.0,80,0.00,,,0.00,WUHU216HW,2013-01-15 13:00:00,
2013-01-15 07:05:00,16.9,11.8,30.39,North,0,0.0,0.0,80,0.00,,,0.00,WUHU216HW,2013-01-15 13:05:00,
2013-01-15 07:30:00,16.9,12.1,30.40,North,0,0.0,0.0,81,0.00,,,0.00,WUHU216HW,2013-01-15 13:30:00,
2013-01-15 07:35:00,16.9,12.1,30.40,North,0,0.0,0.0,81,0.00,,,0.00,WUHU216HW,2013-01-15 13:35:00,
2013-01-15 07:59:00,17.6,12.7,30.40,North,0,0.0,0.0,81,0.00,,,0.00,WUHU216HW,2013-01-15 13:59:00,
2013-01-15 08:00:00,17.6,12.7,30.40,North,0,0.0,0.0,81,0.00,,,0.00,WUHU216HW,2013-01-15 14:00:00,
2013-01-15 08:05:00,17.6,12.7,30.40,North,0,0.0,0.0,81,0.00,,,0.00,WUHU216HW,2013-01-15 14:05:00,
2013-01-15 08:29:00,19.8,15.4,30.38,North,0,0.0,0.0,83,0.00,,,0.00,WUHU216HW,2013-01-15 14:29:00,
2013-01-15 08:30:00,19.8,15.4,30.38,North,0,0.0,0.0,83,0.00,,,0.00,WUHU216HW,2013-01-15 14:30:00,
2013-01-15 08:35:00,19.8,15.4,30.38,North,0,0.0,0.0,83,0.00,,,0.00,WUHU216HW,2013-01-15 14:35:00,
2013-01-15 08:59:00,22.1,18.0,30.38,North,0,0.0,0.0,84,0.00,,,0.00,WUHU216HW,2013-01-15 14:59:00,
2013-01-15 09:00:00,22.1,18.0,30.38,North,0,0.0,0.0,84,0.00,,,0.00,WUHU216HW,2013-01-15 15:00:00,
2013-01-15 09:05:00,22.1,18.0,30.38,North,0,0.0,0.0,84,0.00,,,0.00,WUHU216HW,2013-01-15 15:05:00,
2013-01-15 09:29:00,24.1,18.9,30.34,North,0,0.0,0.0,80,0.00,,,0.00,WUHU216HW,2013-01-15 15:29:00,
2013-01-15 09:30:00,24.1,18.9,30.34,North,0,0.0,0.0,80,0.00,,,0.00,WUHU216HW,2013-01-15 15:30:00,
2013-01-15 09:35:00,24.1,18.9,30.34,North,0,0.0,0.0,80,0.00,,,0.00,WUHU216HW,2013-01-15 15:35:00,
2013-01-15 10:00:00,25.7,19.2,30.34,North,0,0.0,0.0,76,0.00,,,0.00,WUHU216HW,2013-01-15 16:00:00,
2013-01-15 10:05:00,25.7,19.2,30.34,North,0,0.0,0.0,76,0.00,,,0.00,WUHU216HW,2013-01-15 16:05:00,
2013-01-15 10:30:00,26.5,18.6,30.34,North,0,0.0,0.0,72,0.00,,,0.00,WUHU216HW,2013-01-15 16:30:00,
2013-01-15 10:35:00,26.5,18.6,30.34,North,0,0.0,0.0,72,0.00,,,0.00,WUHU216HW,2013-01-15 16:35:00,
2013-01-15 11:00:00,27.2,19.4,30.36,North,0,0.0,0.0,72,0.00,,,0.00,WUHU216HW,2013-01-15 17:00:00,
2013-01-15 11:05:00,27.2,19.4,30.36,North,0,0.0,0.0,72,0.00,,,0.00,WUHU216HW,2013-01-15 17:05:00,
2013-01-15 11:30:00,28.1,19.3,30.35,North,0,0.0,0.0,69,0.00,,,0.00,WUHU216HW,2013-01-15 17:30:00,
2013-01-15 11:35:00,28.1,19.3,30.35,North,0,0.0,0.0,69,0.00,,,0.00,WUHU216HW,2013-01-15 17:35:00,
2013-01-15 12:00:00,28.6,20.2,30.33,North,0,0.0,0.0,70,0.00,,,0.00,WUHU216HW,2013-01-15 18:00:00,
2013-01-15 12:05:00,28.6,20.2,30.33,North,0,0.0,0.0,70,0.00,,,0.00,WUHU216HW,2013-01-15 18:05:00,
2013-01-15 12:30:00,28.4,20.0,30.30,North,0,0.0,0.0,70,0.00,,,0.00,WUHU216HW,2013-01-15 18:30:00,
2013-01-15 12:35:00,28.4,20.0,30.30,North,0,0.0,0.0,70,0.00,,,0.00,WUHU216HW,2013-01-15 18:35:00,
2013-01-15 12:59:00,29.0,20.8,30.29,North,0,0.0,0.0,71,0.00,,,0.00,WUHU216HW,2013-01-15 18:59:00,
2013-01-15 13:00:00,29.0,20.8,30.29,North,0,0.0,0.0,71,0.00,,,0.00,WUHU216HW,2013-01-15 19:00:00,
2013-01-15 13:05:00,29.0,20.8,30.29,North,0,0.0,0.0,71,0.00,,,0.00,WUHU216HW,2013-01-15 19:05:00,
2013-01-15 13:29:00,29.2,20.6,30.29,North,0,0.0,0.0,70,0.00,,,0.00,WUHU216HW,2013-01-15 19:29:00,
2013-01-15 13:30:00,29.2,20.6,30.29,North,0,0.0,0.0,70,0.00,,,0.00,WUHU216HW,2013-01-15 19:30:00,
2013-01-15 13:35:00,29.2,20.6,30.29,North,0,0.0,0.0,70,0.00,,,0.00,WUHU216HW,2013-01-15 19:35:00,
2013-01-15 13:59:00,30.6,20.5,30.29,North,0,0.0,0.0,66,0.00,,,0.00,WUHU216HW,2013-01-15 19:59:00,
2013-01-15 14:00:00,30.6,20.5,30.29,North,0,0.0,0.0,66,0.00,,,0.00,WUHU216HW,2013-01-15 20:00:00,
2013-01-15 14:05:00,30.6,20.5,30.29,North,0,0.0,0.0,66,0.00,,,0.00,WUHU216HW,2013-01-15 20:05:00,
2013-01-15 14:29:00,31.0,21.2,30.27,North,0,0.0,0.0,67,0.00,,,0.00,WUHU216HW,2013-01-15 20:29:00,
2013-01-15 14:30:00,31.0,21.2,30.27,North,0,0.0,0.0,67,0.00,,,0.00,WUHU216HW,2013-01-15 20:30:00,
2013-01-15 14:35:00,31.0,21.2,30.27,North,0,0.0,0.0,67,0.00,,,0.00,WUHU216HW,2013-01-15 20:35:00,
2013-01-15 14:59:00,30.6,20.5,30.27,North,0,0.0,0.0,66,0.00,,,0.00,WUHU216HW,2013-01-15 20:59:00,
2013-01-15 15:00:00,30.6,20.5,30.27,North,0,0.0,0.0,66,0.00,,,0.00,WUHU216HW,2013-01-15 21:00:00,
2013-01-15 15:05:00,30.6,20.5,30.27,North,0,0.0,0.0,66,0.00,,,0.00,WUHU216HW,2013-01-15 21:05:00,
2013-01-15 15:29:00,29.9,19.8,30.26,North,0,0.0,0.0,66,0.00,,,0.00,WUHU216HW,2013-01-15 21:29:00,
2013-01-15 15:30:00,29.9,19.8,30.26,North,0,0.0,0.0,66,0.00,,,0.00,WUHU216HW,2013-01-15 21:30:00,
2013-01-15 15:35:00,29.9,19.8,30.26,North,0,0.0,0.0,66,0.00,,,0.00,WUHU216HW,2013-01-15 21:35:00,
2013-01-15 16:00:00,29.7,20.8,30.25,North,0,0.0,0.0,69,0.00,,,0.00,WUHU216HW,2013-01-15 22:00:00,
2013-01-15 16:05:00,29.7,20.8,30.25,North,0,0.0,0.0,69,0.00,,,0.00,WUHU216HW,2013-01-15 22:05:00,
2013-01-15 16:10:00,29.7,20.8,30.25,North,0,0.0,0.0,69,0.00,,,0.00,WUHU216HW,2013-01-15 22:10:00,
2013-01-15 16:30:00,29.5,21.2,30.24,North,0,0.0,0.0,71,0.00,,,0.00,WUHU216HW,2013-01-15 22:30:00,
2013-01-15 16:35:00,29.5,21.2,30.24,North,0,0.0,0.0,71,0.00,,,0.00,WUHU216HW,2013-01-15 22:35:00,
2013-01-15 17:00:00,29.3,21.4,30.23,North,0,0.0,0.0,72,0.00,,,0.00,WUHU216HW,2013-01-15 23:00:00,
2013-01-15 17:05:00,29.3,21.4,30.23,North,0,0.0,0.0,72,0.00,,,0.00,WUHU216HW,2013-01-15 23:05:00,
2013-01-15 17:30:00,29.2,21.2,30.23,North,0,0.0,0.0,72,0.00,,,0.00,WUHU216HW,2013-01-15 23:30:00,
2013-01-15 17:35:00,29.2,21.2,30.23,North,0,0.0,0.0,72,0.00,,,0.00,WUHU216HW,2013-01-15 23:35:00,
2013-01-15 18:00:00,29.2,21.6,30.23,North,0,0.0,0.0,73,0.00,,,0.00,WUHU216HW,2013-01-16 00:00:00,
2013-01-15 18:05:00,29.2,21.6,30.23,North,0,0.0,0.0,73,0.00,,,0.00,WUHU216HW,2013-01-16 00:05:00,
2013-01-15 18:30:00,29.0,21.7,30.23,North,0,0.0,0.0,74,0.00,,,0.00,WUHU216HW,2013-01-16 00:30:00,
2013-01-15 18:35:00,29.0,21.7,30.23,North,0,0.0,0.0,74,0.00,,,0.00,WUHU216HW,2013-01-16 00:35:00,
2013-01-15 19:00:00,28.8,21.5,30.22,North,0,0.0,0.0,74,0.00,,,0.00,WUHU216HW,2013-01-16 01:00:00,
2013-01-15 19:05:00,28.8,21.5,30.22,North,0,0.0,0.0,74,0.00,,,0.00,WUHU216HW,2013-01-16 01:05:00,
2013-01-15 19:30:00,28.4,21.5,30.22,North,0,0.0,0.0,75,0.00,,,0.00,WUHU216HW,2013-01-16 01:30:00,
2013-01-15 19:35:00,28.4,21.5,30.22,North,0,0.0,0.0,75,0.00,,,0.00,WUHU216HW,2013-01-16 01:35:00,
2013-01-15 20:00:00,27.7,21.1,30.21,North,0,0.0,0.0,76,0.00,,,0.00,WUHU216HW,2013-01-16 02:00:00,
2013-01-15 20:05:00,27.7,21.1,30.21,North,0,0.0,0.0,76,0.00,,,0.00,WUHU216HW,2013-01-16 02:05:00,
2013-01-15 20:30:00,27.7,20.8,30.22,North,0,0.0,0.0,75,0.00,,,0.00,WUHU216HW,2013-01-16 02:30:00,
2013-01-15 20:35:00,27.7,20.8,30.22,North,0,0.0,0.0,75,0.00,,,0.00,WUHU216HW,2013-01-16 02:35:00,
2013-01-15 21:00:00,28.3,21.6,30.21,North,0,0.0,0.0,76,0.00,,,0.00,WUHU216HW,2013-01-16 03:00:00,
2013-01-15 21:05:00,28.3,21.6,30.21,North,0,0.0,0.0,76,0.00,,,0.00,WUHU216HW,2013-01-16 03:05:00,
2013-01-15 21:30:00,28.4,21.5,30.19,North,0,0.0,0.0,75,0.00,,,0.00,WUHU216HW,2013-01-16 03:30:00,
2013-01-15 21:35:00,28.4,21.5,30.19,North,0,0.0,0.0,75,0.00,,,0.00,WUHU216HW,2013-01-16 03:35:00,
2013-01-15 22:00:00,28.4,21.5,30.18,North,0,0.0,0.0,75,0.00,,,0.00,WUHU216HW,2013-01-16 04:00:00,
2013-01-15 22:05:00,28.4,21.5,30.18,North,0,0.0,0.0,75,0.00,,,0.00,WUHU216HW,2013-01-16 04:05:00,
2013-01-15 22:30:00,28.4,21.5,30.16,North,0,0.0,0.0,75,0.00,,,0.00,WUHU216HW,2013-01-16 04:30:00,
2013-01-15 22:35:00,28.4,21.5,30.16,North,0,0.0,0.0,75,0.00,,,0.00,WUHU216HW,2013-01-16 04:35:00,
2013-01-15 23:00:00,28.4,21.8,30.16,North,0,0.0,0.0,76,0.00,,,0.00,WUHU216HW,2013-01-16 05:00:00,
2013-01-15 23:01:00,28.4,21.8,30.16,North,0,0.0,0.0,76,0.00,,,0.00,WUHU216HW,2013-01-16 05:01:00,
2013-01-15 23:07:00,28.4,21.8,30.16,North,0,0.0,0.0,76,0.00,,,0.00,WUHU216HW,2013-01-16 05:07:00,
2013-01-15 23:30:00,27.9,21.2,30.14,North,0,0.0,0.0,76,0.00,,,0.00,WUHU216HW,2013-01-16 05:30:00,
2013-01-15 23:35:00,27.9,21.2,30.14,North,0,0.0,0.0,76,0.00,,,0.00,WUHU216HW,2013-01-16 05:35:00,